Time;durP1;ratioP1;P1;durP2;ratioP2;P2;SDS_P1;SDS_P2;PMS_P1;PMS_P2;Temp;Humidity;BMP_temperature;BMP_pressure;BME280_temperature;BME280_humidity;BME280_pressure;Samples;Min_cycle;Max_cycle;Signal;HPM_P1;HPM_P2
2023/10/04 00:01:46;;;;;;;0.60;0.60;;;13.50;99.90;;;;;;6249313;23;20195;-81
2023/10/04 00:04:14;;;;;;;0.50;0.50;;;13.40;99.90;;;;;;6248960;23;20373;-79
2023/10/04 00:06:42;;;;;;;0.50;0.50;;;13.40;99.90;;;;;;6249089;23;20184;-79
2023/10/04 00:09:09;;;;;;;0.50;0.50;;;13.50;99.90;;;;;;6249167;23;20669;-80
2023/10/04 00:11:37;;;;;;;0.55;0.55;;;13.30;99.90;;;;;;6248908;23;20263;-80
2023/10/04 00:14:05;;;;;;;0.80;0.80;;;13.10;99.90;;;;;;6250275;23;20194;-82
2023/10/04 00:16:32;;;;;;;0.75;0.75;;;13.10;99.90;;;;;;6250024;23;20191;-79
2023/10/04 00:19:00;;;;;;;0.50;0.50;;;13.10;99.90;;;;;;6249972;23;20190;-83
2023/10/04 00:21:26;;;;;;;0.50;0.50;;;13.10;99.90;;;;;;6249892;23;20187;-81
2023/10/04 00:23:54;;;;;;;0.55;0.55;;;13.10;99.90;;;;;;6249733;23;20175;-83
2023/10/04 00:26:21;;;;;;;0.77;0.77;;;13.10;99.90;;;;;;6250224;23;20743;-81
2023/10/04 00:28:48;;;;;;;0.73;0.73;;;13.00;99.90;;;;;;6250974;23;20171;-81
2023/10/04 00:31:15;;;;;;;0.50;0.50;;;13.00;99.90;;;;;;6252833;23;20235;-78
2023/10/04 00:33:43;;;;;;;0.70;0.70;;;13.00;99.90;;;;;;6251659;23;20195;-80
2023/10/04 00:36:13;;;;;;;0.73;0.73;;;13.00;99.90;;;;;;6252518;23;20396;-77
2023/10/04 00:38:40;;;;;;;0.50;0.50;;;12.90;99.90;;;;;;6257793;23;20183;-81
2023/10/04 00:41:09;;;;;;;1.45;1.35;;;12.90;99.90;;;;;;6267778;22;20203;-80
2023/10/04 00:43:50;;;;;;;0.50;0.50;;;12.80;99.90;;;;;;6242447;23;20167;-78
2023/10/04 00:46:22;;;;;;;1.80;1.00;;;12.80;99.90;;;;;;6266874;23;20167;-81
2023/10/04 00:48:54;;;;;;;1.13;1.13;;;12.90;99.90;;;;;;6255787;23;20174;-78
2023/10/04 00:51:22;;;;;;;0.50;0.50;;;13.00;99.90;;;;;;6250439;23;20191;-80
2023/10/04 00:53:51;;;;;;;0.95;0.95;;;13.00;99.90;;;;;;6250219;23;20183;-81
2023/10/04 00:56:18;;;;;;;0.60;0.60;;;12.90;99.90;;;;;;6224139;23;20187;-77
2023/10/04 00:58:46;;;;;;;1.25;1.23;;;12.90;99.90;;;;;;6250598;23;20176;-78
2023/10/04 01:01:14;;;;;;;0.40;0.40;;;12.90;99.90;;;;;;6223126;23;20206;-77
2023/10/04 01:03:41;;;;;;;0.40;0.40;;;12.80;99.90;;;;;;6223129;23;20183;-77
2023/10/04 01:06:09;;;;;;;0.40;0.40;;;12.80;99.90;;;;;;6251870;23;20191;-79
2023/10/04 01:08:37;;;;;;;1.52;1.42;;;12.80;99.90;;;;;;6251976;23;20188;-80
2023/10/04 01:11:10;;;;;;;0.82;0.82;;;12.70;99.90;;;;;;6225229;23;20204;-81
2023/10/04 01:13:38;;;;;;;0.50;0.50;;;12.60;99.90;;;;;;6226157;23;20164;-80
2023/10/04 01:16:09;;;;;;;1.10;1.10;;;12.60;99.90;;;;;;6251068;23;20190;-78
2023/10/04 01:18:38;;;;;;;0.80;0.80;;;12.50;99.90;;;;;;6251406;23;20222;-77
2023/10/04 01:21:05;;;;;;;0.68;0.60;;;12.40;99.90;;;;;;6251076;23;20660;-79
2023/10/04 01:23:33;;;;;;;0.50;0.50;;;12.40;99.90;;;;;;6250526;23;20175;-79
2023/10/04 01:26:00;;;;;;;0.85;0.85;;;12.40;99.90;;;;;;6251382;23;20194;-77
2023/10/04 01:28:30;;;;;;;2.35;2.03;;;12.40;99.90;;;;;;6250745;23;20184;-78
2023/10/04 01:30:59;;;;;;;0.40;0.40;;;12.30;99.90;;;;;;6224877;23;20450;-81
2023/10/04 01:33:28;;;;;;;0.40;0.40;;;12.40;99.90;;;;;;6251865;23;20190;-81
2023/10/04 01:35:57;;;;;;;1.85;1.73;;;12.40;99.90;;;;;;6251487;23;20176;-83
2023/10/04 01:38:25;;;;;;;0.65;0.65;;;12.30;99.90;;;;;;6251301;23;20226;-79
2023/10/04 01:40:56;;;;;;;0.70;0.70;;;12.30;99.90;;;;;;6254735;23;20179;-79
2023/10/04 01:43:27;;;;;;;0.60;0.60;;;12.30;99.90;;;;;;6253452;23;20187;-84
2023/10/04 01:45:58;;;;;;;0.40;0.40;;;12.30;99.90;;;;;;6254787;23;20678;-80
2023/10/04 01:48:31;;;;;;;0.40;0.40;;;12.20;99.90;;;;;;6253163;23;20179;-80
2023/10/04 01:51:02;;;;;;;0.88;0.88;;;12.30;99.90;;;;;;6251498;23;20207;-77
2023/10/04 01:53:35;;;;;;;0.93;0.93;;;12.30;99.90;;;;;;6226013;23;20172;-81
2023/10/04 01:56:03;;;;;;;0.40;0.40;;;12.30;99.90;;;;;;6252836;23;20192;-78
2023/10/04 01:58:31;;;;;;;0.40;0.40;;;12.40;99.90;;;;;;6252317;23;20267;-79
2023/10/04 02:01:00;;;;;;;0.65;0.65;;;12.40;99.90;;;;;;6251048;23;20187;-81
2023/10/04 02:03:28;;;;;;;0.50;0.50;;;12.50;99.90;;;;;;6251780;23;20258;-83
2023/10/04 02:05:59;;;;;;;0.40;0.30;;;12.60;99.90;;;;;;6252938;23;20175;-78
2023/10/04 02:08:28;;;;;;;3.05;2.88;;;12.70;99.90;;;;;;6252039;23;20186;-78
2023/10/04 02:10:57;;;;;;;0.40;0.40;;;12.60;99.90;;;;;;6252772;23;20203;-82
2023/10/04 02:13:27;;;;;;;0.52;0.52;;;12.70;99.90;;;;;;6253083;23;20184;-81
2023/10/04 02:15:54;;;;;;;0.73;0.73;;;12.70;99.90;;;;;;6252829;23;20171;-78
2023/10/04 02:18:23;;;;;;;0.40;0.40;;;12.70;99.90;;;;;;6253121;23;20176;-83
2023/10/04 02:20:53;;;;;;;0.40;0.40;;;12.70;99.90;;;;;;6229022;23;20194;-79
2023/10/04 02:23:23;;;;;;;0.40;0.40;;;12.70;99.90;;;;;;6255290;23;20199;-81
2023/10/04 02:25:52;;;;;;;0.40;0.40;;;12.60;99.90;;;;;;6255997;23;20163;-78
2023/10/04 02:28:22;;;;;;;0.47;0.47;;;12.60;99.90;;;;;;6227992;23;20226;-83
2023/10/04 02:30:54;;;;;;;0.60;0.60;;;12.50;99.90;;;;;;6252121;23;20214;-79
2023/10/04 02:33:27;;;;;;;1.35;1.05;;;12.50;99.90;;;;;;6251963;23;20495;-78
2023/10/04 02:35:56;;;;;;;0.40;0.40;;;12.40;99.90;;;;;;6259280;23;20184;-82
2023/10/04 02:38:26;;;;;;;0.85;0.85;;;12.30;99.90;;;;;;6274142;23;20199;-81
2023/10/04 02:40:53;;;;;;;0.50;0.50;;;12.20;99.90;;;;;;6273729;23;20182;-81
2023/10/04 02:43:25;;;;;;;0.60;0.60;;;12.20;99.90;;;;;;6222262;22;20168;-83
2023/10/04 02:45:54;;;;;;;1.05;1.05;;;12.20;99.90;;;;;;6257657;23;20227;-80
2023/10/04 02:48:26;;;;;;;1.60;1.50;;;12.00;99.90;;;;;;6251255;23;20183;-78
2023/10/04 02:50:54;;;;;;;1.65;1.60;;;12.00;99.90;;;;;;6251808;23;20368;-87
2023/10/04 02:53:24;;;;;;;0.57;0.57;;;12.00;99.90;;;;;;6251249;23;20569;-80
2023/10/04 02:55:57;;;;;;;1.13;1.05;;;12.00;99.90;;;;;;6251980;23;20543;-82
2023/10/04 02:58:24;;;;;;;0.82;0.82;;;11.90;99.90;;;;;;6201575;23;20207;-80
2023/10/04 03:00:53;;;;;;;0.70;0.60;;;11.90;99.90;;;;;;6251642;23;20172;-81
2023/10/04 03:03:25;;;;;;;0.70;0.70;;;11.90;99.90;;;;;;6250699;23;20192;-77
2023/10/04 03:05:54;;;;;;;0.40;0.40;;;12.00;99.90;;;;;;6253350;23;20160;-78
2023/10/04 03:08:27;;;;;;;0.50;0.50;;;12.00;99.90;;;;;;6258197;23;20222;-80
2023/10/04 03:10:55;;;;;;;0.40;0.40;;;11.90;99.90;;;;;;6251879;23;20206;-82
2023/10/04 03:13:25;;;;;;;0.88;0.88;;;11.90;99.90;;;;;;6250789;23;20190;-81
2023/10/04 03:15:53;;;;;;;0.50;0.50;;;11.90;99.90;;;;;;6251428;23;20468;-82
2023/10/04 03:18:20;;;;;;;0.70;0.70;;;11.90;99.90;;;;;;6252390;23;20535;-79
2023/10/04 03:21:08;;;;;;;14.57;1.67;;;11.90;99.90;;;;;;6226898;23;20243;-84
2023/10/04 03:23:40;;;;;;;1.10;1.10;;;11.80;99.90;;;;;;6230799;23;20578;-84
2023/10/04 03:26:12;;;;;;;0.50;0.50;;;11.60;99.90;;;;;;6226355;23;20175;-84
2023/10/04 03:28:40;;;;;;;0.40;0.40;;;11.60;99.90;;;;;;6251343;23;20532;-81
2023/10/04 03:31:14;;;;;;;0.40;0.40;;;11.50;99.90;;;;;;6251364;23;20225;-83
2023/10/04 03:33:45;;;;;;;0.40;0.40;;;11.50;99.90;;;;;;6175242;23;20230;-84
2023/10/04 03:36:17;;;;;;;1.13;1.13;;;11.60;99.90;;;;;;6251289;23;20160;-82
2023/10/04 03:38:45;;;;;;;0.40;0.40;;;11.70;99.90;;;;;;6250807;23;20172;-81
2023/10/04 03:41:13;;;;;;;0.45;0.45;;;11.80;99.90;;;;;;6251202;23;20184;-83
2023/10/04 03:43:40;;;;;;;1.02;0.82;;;11.90;99.90;;;;;;6250627;23;20361;-83
2023/10/04 03:46:18;;;;;;;0.80;0.80;;;11.90;99.90;;;;;;6251191;23;20243;-82
2023/10/04 03:48:48;;;;;;;1.23;1.23;;;12.00;99.90;;;;;;6250674;23;20273;-81
2023/10/04 03:51:22;;;;;;;0.70;0.70;;;12.00;99.90;;;;;;6250458;23;20211;-82
2023/10/04 03:53:53;;;;;;;1.05;1.05;;;12.10;99.90;;;;;;6224418;23;20168;-83
2023/10/04 03:56:22;;;;;;;0.40;0.40;;;12.10;99.90;;;;;;6250932;23;20194;-83
2023/10/04 03:58:50;;;;;;;1.52;1.52;;;12.10;99.90;;;;;;6224330;23;20207;-79
2023/10/04 04:01:17;;;;;;;6.75;2.45;;;12.10;99.90;;;;;;6249050;23;20187;-82
2023/10/04 04:03:45;;;;;;;2.00;1.85;;;12.10;99.90;;;;;;6222979;23;20415;-82
2023/10/04 04:06:12;;;;;;;0.88;0.88;;;12.00;99.90;;;;;;6249803;23;20247;-80
2023/10/04 04:08:42;;;;;;;0.77;0.77;;;12.10;99.90;;;;;;6249951;23;20218;-82
2023/10/04 04:11:09;;;;;;;0.90;0.90;;;12.10;99.90;;;;;;6223238;23;20249;-79
2023/10/04 04:13:36;;;;;;;0.70;0.70;;;12.10;99.90;;;;;;6250768;23;20238;-80
2023/10/04 04:16:09;;;;;;;0.40;0.40;;;12.10;99.90;;;;;;6251698;23;20225;-78
2023/10/04 04:18:38;;;;;;;2.00;1.77;;;12.20;99.90;;;;;;6250545;23;20168;-80
2023/10/04 04:21:05;;;;;;;1.15;1.05;;;12.20;99.90;;;;;;6249789;23;20277;-80
2023/10/04 04:23:34;;;;;;;4.40;1.63;;;12.20;99.90;;;;;;6249242;23;20417;-81
2023/10/04 04:26:05;;;;;;;0.50;0.50;;;12.20;99.90;;;;;;6250438;23;20179;-77
2023/10/04 04:28:36;;;;;;;0.70;0.70;;;12.10;99.90;;;;;;6250670;23;20197;-83
2023/10/04 04:31:19;;;;;;;0.63;0.63;;;12.20;99.90;;;;;;6250164;23;20198;-81
2023/10/04 04:33:47;;;;;;;1.45;1.42;;;12.20;99.90;;;;;;6226416;23;20160;-83
2023/10/04 04:36:27;;;;;;;0.50;0.50;;;12.20;99.90;;;;;;6250527;23;20183;-83
2023/10/04 04:38:55;;;;;;;0.40;0.40;;;12.20;99.90;;;;;;6249801;23;20218;-77
2023/10/04 04:41:25;;;;;;;0.40;0.40;;;12.20;99.90;;;;;;6249865;23;20508;-79
2023/10/04 04:43:52;;;;;;;0.40;0.40;;;12.20;99.90;;;;;;6251199;23;20183;-78
2023/10/04 04:46:22;;;;;;;0.50;0.50;;;12.20;99.90;;;;;;6251356;23;20210;-84
2023/10/04 04:48:54;;;;;;;0.60;0.60;;;12.10;99.90;;;;;;6251537;23;20490;-83
2023/10/04 04:51:22;;;;;;;0.50;0.50;;;11.90;99.90;;;;;;6255665;23;20235;-83
2023/10/04 04:53:50;;;;;;;0.88;0.88;;;11.90;99.90;;;;;;6253916;23;20186;-77
2023/10/04 04:56:18;;;;;;;0.50;0.50;;;11.90;99.90;;;;;;6199582;23;20251;-81
2023/10/04 04:58:47;;;;;;;0.88;0.88;;;11.90;99.90;;;;;;6249653;23;20195;-77
2023/10/04 05:01:15;;;;;;;0.75;0.75;;;11.90;99.90;;;;;;6247521;23;20194;-80
2023/10/04 05:03:49;;;;;;;0.40;0.40;;;11.90;99.90;;;;;;6249250;23;20660;-81
2023/10/04 05:06:23;;;;;;;0.50;0.50;;;11.80;99.90;;;;;;6248174;23;20172;-83
2023/10/04 05:08:56;;;;;;;0.50;0.50;;;11.60;99.90;;;;;;6223487;23;20167;-82
2023/10/04 05:11:24;;;;;;;1.67;1.08;;;11.80;99.90;;;;;;6249858;23;20214;-80
2023/10/04 05:13:54;;;;;;;0.50;0.50;;;11.70;99.90;;;;;;6250377;23;20241;-80
2023/10/04 05:16:21;;;;;;;0.40;0.40;;;11.80;99.90;;;;;;6254577;23;20183;-83
2023/10/04 05:18:49;;;;;;;0.45;0.45;;;11.50;99.90;;;;;;6238464;22;20221;-85
2023/10/04 05:21:22;;;;;;;6.20;1.77;;;11.50;99.90;;;;;;6272484;22;20235;-82
2023/10/04 05:23:49;;;;;;;0.60;0.60;;;11.50;99.90;;;;;;6271445;22;20179;-84
2023/10/04 05:26:19;;;;;;;0.68;0.68;;;11.40;99.90;;;;;;6244775;22;20179;-82
2023/10/04 05:28:45;;;;;;;0.57;0.57;;;11.50;99.90;;;;;;6263941;22;20168;-81
2023/10/04 05:31:15;;;;;;;0.40;0.40;;;11.50;99.90;;;;;;6264417;22;20217;-82
2023/10/04 05:33:42;;;;;;;0.40;0.40;;;11.50;99.90;;;;;;6269376;22;20183;-81
2023/10/04 05:36:09;;;;;;;0.40;0.40;;;11.50;99.90;;;;;;6262107;23;20238;-83
2023/10/04 05:38:36;;;;;;;11.88;2.65;;;11.70;99.90;;;;;;6254345;23;20222;-81
2023/10/04 05:41:03;;;;;;;6.93;2.03;;;11.80;99.90;;;;;;6251215;23;20187;-80
2023/10/04 05:43:34;;;;;;;0.70;0.70;;;11.80;99.90;;;;;;6225577;23;20211;-83
2023/10/04 05:46:04;;;;;;;0.57;0.57;;;11.80;99.90;;;;;;6251851;23;20207;-81
2023/10/04 05:48:31;;;;;;;0.60;0.60;;;11.80;99.90;;;;;;6223844;23;20233;-83
2023/10/04 05:50:58;;;;;;;0.75;0.75;;;11.90;99.90;;;;;;6249407;23;20234;-82
2023/10/04 05:53:26;;;;;;;1.55;1.50;;;11.80;99.90;;;;;;6251147;23;20184;-81
2023/10/04 05:55:54;;;;;;;0.80;0.80;;;11.90;99.90;;;;;;6252154;23;20195;-82
2023/10/04 05:58:21;;;;;;;0.90;0.90;;;12.10;99.90;;;;;;6251654;23;20229;-82
2023/10/04 06:00:52;;;;;;;1.00;1.00;;;12.00;99.90;;;;;;6249939;23;20194;-79
2023/10/04 06:03:20;;;;;;;0.50;0.50;;;12.00;99.90;;;;;;6251201;23;20172;-82
2023/10/04 06:05:51;;;;;;;0.63;0.63;;;12.10;99.90;;;;;;6250991;23;20698;-80
2023/10/04 06:08:20;;;;;;;0.63;0.63;;;12.20;99.90;;;;;;6251379;23;20215;-81
2023/10/04 06:10:55;;;;;;;1.38;1.33;;;12.50;99.90;;;;;;6251562;23;20164;-83
2023/10/04 06:13:22;;;;;;;1.10;1.08;;;12.50;99.90;;;;;;6250561;23;20195;-79
2023/10/04 06:15:53;;;;;;;0.80;0.80;;;12.80;99.90;;;;;;6250396;23;20222;-83
2023/10/04 06:18:28;;;;;;;0.65;0.65;;;12.90;99.90;;;;;;6251154;23;20840;-82
2023/10/04 06:20:59;;;;;;;1.02;1.02;;;13.00;99.90;;;;;;6225336;23;20168;-81
2023/10/04 06:23:31;;;;;;;1.20;1.15;;;13.20;99.90;;;;;;6252471;23;20168;-83
2023/10/04 06:25:59;;;;;;;0.77;0.77;;;13.30;99.90;;;;;;6259472;23;20167;-80
2023/10/04 06:28:27;;;;;;;2.20;1.90;;;13.50;99.90;;;;;;6272904;22;20397;-83
2023/10/04 06:30:56;;;;;;;1.00;1.00;;;13.40;99.90;;;;;;6270553;22;20397;-83
2023/10/04 06:33:24;;;;;;;0.70;0.70;;;13.40;99.90;;;;;;6258456;22;20469;-81
2023/10/04 06:35:53;;;;;;;0.73;0.73;;;13.40;99.90;;;;;;6251835;23;20404;-82
2023/10/04 06:38:21;;;;;;;0.60;0.60;;;13.40;99.90;;;;;;6251878;23;20397;-82
2023/10/04 06:40:54;;;;;;;0.70;0.70;;;13.50;99.90;;;;;;6226953;23;20460;-81
2023/10/04 06:43:21;;;;;;;0.80;0.80;;;13.50;99.90;;;;;;6250692;23;20435;-84
2023/10/04 06:45:49;;;;;;;0.70;0.70;;;13.60;99.90;;;;;;6250891;23;20461;-82
2023/10/04 06:48:17;;;;;;;0.50;0.50;;;14.00;99.90;;;;;;6251674;23;20401;-85
2023/10/04 06:50:45;;;;;;;0.70;0.70;;;14.20;99.90;;;;;;6252430;23;20479;-81
2023/10/04 06:53:14;;;;;;;0.80;0.80;;;14.40;99.90;;;;;;6249914;23;20483;-81
2023/10/04 06:55:41;;;;;;;0.60;0.60;;;14.40;99.90;;;;;;6225441;23;20476;-82
2023/10/04 06:58:11;;;;;;;0.70;0.70;;;14.50;99.90;;;;;;6251383;23;20382;-82
2023/10/04 07:00:40;;;;;;;0.83;0.83;;;14.50;99.90;;;;;;6225993;23;20953;-82
2023/10/04 07:03:10;;;;;;;0.60;0.60;;;14.50;99.90;;;;;;6225976;23;20397;-81
2023/10/04 07:05:40;;;;;;;0.80;0.80;;;14.70;99.90;;;;;;6253140;23;20408;-82
2023/10/04 07:08:16;;;;;;;0.90;0.90;;;14.90;99.90;;;;;;6251172;23;20753;-82
2023/10/04 07:10:44;;;;;;;0.80;0.80;;;15.10;99.90;;;;;;6251711;23;20412;-78
2023/10/04 07:13:12;;;;;;;1.20;1.17;;;15.20;99.90;;;;;;6251296;23;20640;-82
2023/10/04 07:15:40;;;;;;;0.60;0.60;;;15.30;99.90;;;;;;6224556;23;20375;-82
2023/10/04 07:18:11;;;;;;;0.67;0.67;;;15.50;99.90;;;;;;6250844;23;21034;-82
2023/10/04 07:20:40;;;;;;;0.90;0.90;;;16.20;99.90;;;;;;6251859;23;20578;-83
2023/10/04 07:23:10;;;;;;;0.80;0.80;;;16.40;99.90;;;;;;6250833;23;20372;-82
2023/10/04 07:25:41;;;;;;;2.13;1.97;;;17.20;99.90;;;;;;6251978;23;20377;-80
2023/10/04 07:28:11;;;;;;;1.67;1.23;;;17.80;99.90;;;;;;6252259;23;20691;-84
2023/10/04 07:30:40;;;;;;;0.90;0.90;;;18.20;99.90;;;;;;6256566;23;20426;-81
2023/10/04 07:33:08;;;;;;;0.70;0.70;;;18.80;99.90;;;;;;6234637;23;20395;-82
2023/10/04 07:35:38;;;;;;;0.80;0.80;;;18.40;99.90;;;;;;6256929;23;20364;-84
2023/10/04 07:38:05;;;;;;;1.00;1.00;;;18.80;99.90;;;;;;6253942;23;20366;-85
2023/10/04 07:40:37;;;;;;;1.10;1.10;;;18.90;99.90;;;;;;6226230;23;20516;-84
2023/10/04 07:43:07;;;;;;;0.80;0.80;;;19.20;99.90;;;;;;6225538;23;20408;-85
2023/10/04 07:45:38;;;;;;;0.90;0.90;;;19.50;99.90;;;;;;6251302;23;20379;-84
2023/10/04 07:48:06;;;;;;;0.87;0.87;;;19.90;99.90;;;;;;6225151;23;20398;-82
2023/10/04 07:50:34;;;;;;;0.80;0.80;;;20.00;99.90;;;;;;6252102;23;20605;-84
2023/10/04 07:53:04;;;;;;;0.90;0.90;;;20.80;99.90;;;;;;6226758;23;20460;-83
2023/10/04 07:55:37;;;;;;;0.90;0.90;;;20.90;99.90;;;;;;6251828;23;20871;-84
2023/10/04 07:58:04;;;;;;;1.50;1.40;;;20.70;99.90;;;;;;6252736;23;20447;-86
2023/10/04 08:00:35;;;;;;;1.10;1.10;;;20.00;99.90;;;;;;6251844;23;20400;-78
2023/10/04 08:03:04;;;;;;;1.30;1.20;;;19.40;99.90;;;;;;6250908;23;20392;-82
2023/10/04 08:05:31;;;;;;;0.83;0.83;;;19.80;99.90;;;;;;6254097;23;20415;-84
2023/10/04 08:08:01;;;;;;;1.20;1.20;;;20.40;99.90;;;;;;6255611;23;20393;-82
2023/10/04 08:10:33;;;;;;;1.30;1.20;;;20.50;99.90;;;;;;6254979;23;20748;-82
2023/10/04 08:13:01;;;;;;;0.90;0.90;;;20.80;99.90;;;;;;6226402;23;20407;-81
2023/10/04 08:15:31;;;;;;;0.90;0.90;;;20.80;99.90;;;;;;6222727;23;20404;-80
2023/10/04 08:17:59;;;;;;;0.80;0.80;;;21.30;99.90;;;;;;6251235;23;20868;-84
2023/10/04 08:20:32;;;;;;;0.90;0.90;;;21.10;99.90;;;;;;6250855;23;20389;-85
2023/10/04 08:23:02;;;;;;;0.80;0.80;;;20.80;99.90;;;;;;6249682;23;20844;-84
2023/10/04 08:25:32;;;;;;;0.80;0.80;;;20.70;99.90;;;;;;6249643;23;20463;-81
2023/10/04 08:28:01;;;;;;;1.20;1.20;;;20.90;99.90;;;;;;6252075;23;20783;-87
2023/10/04 08:30:30;;;;;;;1.03;1.03;;;21.30;99.90;;;;;;6250218;23;20396;-79
2023/10/04 08:32:59;;;;;;;1.00;1.00;;;21.20;99.90;;;;;;6251368;23;20405;-86
2023/10/04 08:35:28;;;;;;;1.07;1.07;;;21.40;99.90;;;;;;6250236;23;20393;-82
2023/10/04 08:37:58;;;;;;;1.97;1.87;;;20.70;99.90;;;;;;6226884;23;20427;-87
2023/10/04 08:40:30;;;;;;;0.90;0.90;;;20.30;99.90;;;;;;6224303;23;20409;-82
2023/10/04 08:42:58;;;;;;;0.90;0.90;;;20.60;99.90;;;;;;6249631;23;20443;-81
2023/10/04 08:45:33;;;;;;;0.90;0.90;;;20.00;99.90;;;;;;6250226;23;20402;-80
2023/10/04 08:48:02;;;;;;;1.13;1.13;;;19.40;99.90;;;;;;6250564;23;20373;-82
2023/10/04 08:50:38;;;;;;;0.90;0.90;;;19.10;99.90;;;;;;6250751;23;20367;-84
2023/10/04 08:53:32;;;;;;;0.90;0.90;;;18.90;99.90;;;;;;6250004;23;20402;-86
2023/10/04 08:56:11;;;;;;;0.87;0.87;;;18.90;99.90;;;;;;6250786;23;20383;-82
2023/10/04 08:58:43;;;;;;;0.80;0.80;;;18.70;99.90;;;;;;6249916;23;20392;-86
2023/10/04 09:01:15;;;;;;;0.90;0.90;;;18.80;99.90;;;;;;6222674;23;20352;-84
2023/10/04 09:03:44;;;;;;;0.80;0.80;;;18.80;99.90;;;;;;6223241;23;20375;-81
2023/10/04 09:06:14;;;;;;;1.73;1.63;;;19.00;99.90;;;;;;6249409;23;20439;-82
2023/10/04 09:08:42;;;;;;;0.80;0.80;;;18.90;99.90;;;;;;6249507;23;20393;-78
2023/10/04 09:11:10;;;;;;;0.80;0.80;;;18.90;99.90;;;;;;6249439;23;20416;-80
2023/10/04 09:13:47;;;;;;;1.67;1.57;;;18.90;99.90;;;;;;6250174;23;20399;-83
2023/10/04 09:16:29;;;;;;;0.80;0.80;;;19.00;99.90;;;;;;6225467;23;20378;-83
2023/10/04 09:19:17;;;;;;;1.20;1.20;;;18.80;99.90;;;;;;6249314;23;20393;-79
2023/10/04 09:21:45;;;;;;;0.90;0.90;;;18.70;99.90;;;;;;6249652;23;20373;-79
2023/10/04 09:24:16;;;;;;;0.80;0.80;;;18.50;99.90;;;;;;6249808;23;20794;-80
2023/10/04 09:26:52;;;;;;;1.37;1.30;;;18.60;99.90;;;;;;6250676;23;21002;-84
2023/10/04 09:29:35;;;;;;;0.80;0.80;;;18.30;99.90;;;;;;6250658;23;20377;-82
2023/10/04 09:32:05;;;;;;;1.10;1.10;;;18.10;99.90;;;;;;6251633;23;20426;-83
2023/10/04 09:34:33;;;;;;;0.93;0.93;;;18.30;99.90;;;;;;6224365;23;20435;-82
2023/10/04 09:37:18;;;;;;;7.00;2.00;;;18.40;99.90;;;;;;6256240;23;20413;-81
2023/10/04 09:39:45;;;;;;;2.13;1.93;;;18.20;99.90;;;;;;6254517;23;20563;-82
2023/10/04 09:42:14;;;;;;;0.80;0.80;;;18.10;99.90;;;;;;6252330;23;20404;-82
2023/10/04 09:44:41;;;;;;;0.90;0.90;;;18.00;99.90;;;;;;6251820;23;20375;-80
2023/10/04 09:47:09;;;;;;;0.80;0.80;;;17.90;99.90;;;;;;6251795;23;20404;-83
2023/10/04 09:49:37;;;;;;;0.80;0.80;;;18.00;99.90;;;;;;6252040;23;20566;-83
2023/10/04 09:52:07;;;;;;;0.80;0.80;;;18.10;99.90;;;;;;6252409;23;20413;-80
2023/10/04 09:54:35;;;;;;;0.90;0.90;;;18.20;99.90;;;;;;6251796;23;20733;-81
2023/10/04 09:57:08;;;;;;;0.93;0.93;;;18.00;99.90;;;;;;6256491;23;20578;-82
2023/10/04 09:59:36;;;;;;;1.33;1.23;;;18.00;99.90;;;;;;6271280;22;20379;-85
2023/10/04 10:02:07;;;;;;;1.00;1.00;;;18.20;99.90;;;;;;6247030;23;20439;-81
2023/10/04 10:04:43;;;;;;;0.90;0.90;;;18.40;99.90;;;;;;6272884;22;20356;-83
2023/10/04 10:07:20;;;;;;;0.97;0.97;;;18.70;99.90;;;;;;6266504;22;20404;-80
2023/10/04 10:09:53;;;;;;;0.93;0.93;;;18.60;99.90;;;;;;6261869;23;20363;-80
2023/10/04 10:12:31;;;;;;;0.93;0.93;;;18.40;99.90;;;;;;6264365;23;20757;-79
2023/10/04 10:15:04;;;;;;;0.80;0.80;;;18.30;99.90;;;;;;6267558;22;20347;-82
2023/10/04 10:17:33;;;;;;;0.80;0.80;;;18.10;99.90;;;;;;6274607;22;20404;-79
2023/10/04 10:20:05;;;;;;;0.90;0.90;;;18.20;99.90;;;;;;6273694;22;20427;-84
2023/10/04 10:22:32;;;;;;;1.10;1.10;;;18.20;99.90;;;;;;6245190;22;20385;-84
2023/10/04 10:25:14;;;;;;;0.70;0.70;;;18.30;99.90;;;;;;6231120;23;20419;-82
2023/10/04 10:27:46;;;;;;;1.00;1.00;;;18.20;99.90;;;;;;6265337;23;20355;-83
2023/10/04 10:30:18;;;;;;;0.90;0.90;;;18.20;99.90;;;;;;6255997;23;21012;-84
2023/10/04 10:32:55;;;;;;;0.90;0.90;;;18.30;99.90;;;;;;6225256;23;20391;-81
2023/10/04 10:35:48;;;;;;;0.87;0.87;;;18.20;99.90;;;;;;6225099;23;20410;-83
2023/10/04 10:38:47;;;;;;;0.90;0.90;;;18.10;99.90;;;;;;6252337;23;20395;-82
2023/10/04 10:41:30;;;;;;;0.90;0.90;;;18.20;99.90;;;;;;6226771;23;20439;-87
2023/10/04 10:44:24;;;;;;;0.80;0.80;;;18.40;99.90;;;;;;6253166;23;20462;-87
2023/10/04 10:47:08;;;;;;;1.07;1.07;;;18.40;99.90;;;;;;6255203;23;20377;-83
2023/10/04 10:49:50;;;;;;;1.87;1.77;;;18.60;99.90;;;;;;6255768;23;20377;-84
2023/10/04 10:52:34;;;;;;;13.97;2.90;;;18.80;99.90;;;;;;6257448;23;20476;-83
2023/10/04 10:55:14;;;;;;;1.17;1.17;;;18.90;99.90;;;;;;6257071;23;20425;-81
2023/10/04 10:57:44;;;;;;;1.30;1.30;;;19.20;99.90;;;;;;6253043;23;20424;-83
2023/10/04 11:00:23;;;;;;;0.80;0.80;;;19.00;99.90;;;;;;6253031;23;20391;-86
2023/10/04 11:02:53;;;;;;;0.80;0.80;;;18.80;99.90;;;;;;6230473;23;20356;-87
2023/10/04 11:05:29;;;;;;;4.27;3.03;;;18.70;99.90;;;;;;6229758;23;20370;-85
2023/10/04 11:07:57;;;;;;;0.90;0.90;;;18.80;99.90;;;;;;6229214;23;20657;-85
2023/10/04 11:10:25;;;;;;;1.00;1.00;;;18.80;99.90;;;;;;6258635;23;20376;-80
2023/10/04 11:12:55;;;;;;;0.90;0.90;;;18.80;99.90;;;;;;6226902;23;20416;-81
2023/10/04 11:15:23;;;;;;;0.87;0.87;;;18.80;99.90;;;;;;6252914;23;20726;-83
2023/10/04 11:17:52;;;;;;;0.83;0.83;;;18.90;99.90;;;;;;6252830;23;20435;-81
2023/10/04 11:20:21;;;;;;;3.73;2.17;;;18.70;99.90;;;;;;6252904;23;20743;-86
2023/10/04 11:22:50;;;;;;;1.10;1.10;;;18.70;99.90;;;;;;6228368;23;20423;-85
2023/10/04 11:25:20;;;;;;;0.87;0.87;;;18.40;99.90;;;;;;6256247;23;20382;-80
2023/10/04 11:27:53;;;;;;;0.80;0.80;;;18.50;99.90;;;;;;6232790;23;20378;-77
2023/10/04 11:30:26;;;;;;;1.27;1.23;;;18.60;99.90;;;;;;6255043;23;20376;-88
2023/10/04 11:33:03;;;;;;;0.80;0.80;;;18.30;99.90;;;;;;6254279;23;20453;-80
2023/10/04 11:35:37;;;;;;;0.73;0.73;;;18.40;99.90;;;;;;6253393;23;20355;-85
2023/10/04 11:38:15;;;;;;;1.83;1.60;;;18.30;99.90;;;;;;6228430;23;20382;-86
2023/10/04 11:41:04;;;;;;;0.77;0.77;;;18.30;99.90;;;;;;6205804;23;20358;-86
2023/10/04 11:43:41;;;;;;;0.80;0.80;;;18.40;99.90;;;;;;6265821;22;20372;-82
2023/10/04 11:46:13;;;;;;;0.80;0.80;;;18.20;99.90;;;;;;6256788;23;20447;-84
2023/10/04 11:48:41;;;;;;;0.70;0.70;;;18.20;99.90;;;;;;6228244;23;20360;-80
2023/10/04 11:51:08;;;;;;;1.53;1.53;;;18.20;99.90;;;;;;6253905;23;20543;-87
2023/10/04 11:53:43;;;;;;;0.73;0.73;;;18.30;99.90;;;;;;6251895;23;20432;-90
2023/10/04 11:56:10;;;;;;;0.80;0.80;;;18.60;99.90;;;;;;6226501;23;20390;-82
2023/10/04 11:58:50;;;;;;;2.00;1.47;;;19.10;99.90;;;;;;6252896;23;20442;-84
2023/10/04 12:01:23;;;;;;;1.37;1.37;;;19.10;99.90;;;;;;6252701;23;20372;-83
2023/10/04 12:03:56;;;;;;;1.47;1.37;;;19.30;99.90;;;;;;6225920;23;20485;-83
2023/10/04 12:06:33;;;;;;;1.03;1.03;;;19.20;99.90;;;;;;6253183;23;20400;-86
2023/10/04 12:09:05;;;;;;;0.90;0.90;;;19.30;99.90;;;;;;6254647;23;20355;-85
2023/10/04 12:11:37;;;;;;;0.90;0.90;;;19.30;99.90;;;;;;6228550;23;20492;-87
2023/10/04 12:14:09;;;;;;;0.80;0.80;;;19.20;99.90;;;;;;6228190;23;20461;-87
2023/10/04 12:16:41;;;;;;;0.80;0.80;;;19.20;99.90;;;;;;6254560;23;20393;-85
2023/10/04 12:19:16;;;;;;;3.30;3.10;;;19.50;99.90;;;;;;6229867;23;20388;-83
2023/10/04 12:21:53;;;;;;;0.80;0.80;;;19.70;99.90;;;;;;6229549;23;20375;-80
2023/10/04 12:24:30;;;;;;;1.77;1.67;;;19.50;99.90;;;;;;6228270;23;20410;-83
2023/10/04 12:27:00;;;;;;;1.00;1.00;;;19.20;99.90;;;;;;6226289;23;20373;-84
2023/10/04 12:29:33;;;;;;;0.80;0.80;;;19.20;99.90;;;;;;6252746;23;20351;-83
2023/10/04 12:32:04;;;;;;;0.80;0.80;;;18.70;99.90;;;;;;6232465;23;20406;-87
2023/10/04 12:34:35;;;;;;;0.80;0.80;;;18.40;99.90;;;;;;6238484;23;20403;-84
2023/10/04 12:37:05;;;;;;;1.33;1.30;;;18.40;99.90;;;;;;6270095;22;20382;-86
2023/10/04 12:39:38;;;;;;;0.80;0.80;;;18.50;99.90;;;;;;6236538;23;20410;-85
2023/10/04 12:42:09;;;;;;;0.90;0.90;;;18.60;99.90;;;;;;6255312;23;20963;-85
2023/10/04 12:44:41;;;;;;;2.43;2.30;;;18.60;99.90;;;;;;6252431;23;20394;-81
2023/10/04 12:47:09;;;;;;;1.33;1.30;;;18.60;99.90;;;;;;6252494;23;20471;-81
2023/10/04 12:49:37;;;;;;;1.57;1.40;;;18.70;99.90;;;;;;6225762;23;20693;-85
2023/10/04 12:52:04;;;;;;;0.80;0.80;;;18.70;99.90;;;;;;6252596;23;20404;-86
2023/10/04 12:54:40;;;;;;;0.80;0.80;;;18.80;99.90;;;;;;6227194;23;20472;-84
2023/10/04 12:57:15;;;;;;;0.77;0.77;;;19.00;99.90;;;;;;6252937;23;20348;-84
2023/10/04 12:59:43;;;;;;;0.80;0.80;;;18.80;99.90;;;;;;6253153;23;20374;-83
2023/10/04 13:02:09;;;;;;;1.77;1.67;;;18.70;99.90;;;;;;6259060;23;20736;-83
2023/10/04 13:04:37;;;;;;;1.33;1.23;;;18.70;99.90;;;;;;6261449;23;20383;-85